sensor_id;sensor_type;location;lat;lon;timestamp;pressure;altitude;pressure_sealevel;temperature;humidity
76374;BME280;65197;50.164;8.012;2024-02-23T00:01:24;71365.50;;;-144.13;97.66
76374;BME280;65197;50.164;8.012;2024-02-23T00:03:50;71439.59;;;-144.13;100.00
76374;BME280;65197;50.164;8.012;2024-02-23T00:06:15;71511.72;;;-144.13;100.00
76374;BME280;65197;50.164;8.012;2024-02-23T00:08:41;71564.38;;;-144.13;100.00
76374;BME280;65197;50.164;8.012;2024-02-23T00:11:07;71548.78;;;-144.13;100.00
76374;BME280;65197;50.164;8.012;2024-02-23T00:13:32;71570.22;;;-144.13;100.00
76374;BME280;65197;50.164;8.012;2024-02-23T00:15:57;71578.03;;;-144.13;100.00
76374;BME280;65197;50.164;8.012;2024-02-23T00:18:23;71568.28;;;-144.13;100.00
76374;BME280;65197;50.164;8.012;2024-02-23T00:20:48;71589.72;;;-144.13;100.00
76374;BME280;65197;50.164;8.012;2024-02-23T00:23:14;71583.88;;;-144.13;100.00
76374;BME280;65197;50.164;8.012;2024-02-23T00:25:39;71622.88;;;-144.13;100.00
76374;BME280;65197;50.164;8.012;2024-02-23T00:28:05;71611.19;;;-144.13;100.00
76374;BME280;65197;50.164;8.012;2024-02-23T00:30:30;71615.06;;;-144.13;100.00
76374;BME280;65197;50.164;8.012;2024-02-23T00:32:56;71626.78;;;-144.13;100.00
76374;BME280;65197;50.164;8.012;2024-02-23T00:35:21;71603.38;;;-144.13;100.00
76374;BME280;65197;50.164;8.012;2024-02-23T00:37:47;71630.66;;;-144.13;100.00
76374;BME280;65197;50.164;8.012;2024-02-23T00:40:12;71615.06;;;-144.13;100.00
76374;BME280;65197;50.164;8.012;2024-02-23T00:42:38;71628.72;;;-144.13;100.00
76374;BME280;65197;50.164;8.012;2024-02-23T00:45:04;71613.13;;;-144.13;100.00
76374;BME280;65197;50.164;8.012;2024-02-23T00:47:30;71626.78;;;-144.13;100.00
76374;BME280;65197;50.164;8.012;2024-02-23T00:49:55;71681.38;;;-144.13;100.00
76374;BME280;65197;50.164;8.012;2024-02-23T00:52:20;71638.47;;;-144.13;100.00
76374;BME280;65197;50.164;8.012;2024-02-23T00:54:46;71630.66;;;-144.13;100.00
76374;BME280;65197;50.164;8.012;2024-02-23T00:57:11;71673.56;;;-144.13;100.00
76374;BME280;65197;50.164;8.012;2024-02-23T00:59:37;71652.13;;;-144.13;100.00
76374;BME280;65197;50.164;8.012;2024-02-23T01:02:02;71677.47;;;-144.13;100.00
76374;BME280;65197;50.164;8.012;2024-02-23T01:04:27;71657.97;;;-144.13;100.00
76374;BME280;65197;50.164;8.012;2024-02-23T01:06:53;71679.41;;;-144.13;100.00
76374;BME280;65197;50.164;8.012;2024-02-23T01:09:18;71673.56;;;-144.13;100.00
76374;BME280;65197;50.164;8.012;2024-02-23T01:11:46;71683.31;;;-144.13;100.00
76374;BME280;65197;50.164;8.012;2024-02-23T01:14:12;71716.47;;;-144.13;100.00
76374;BME280;65197;50.164;8.012;2024-02-23T01:16:37;71712.56;;;-144.13;100.00
76374;BME280;65197;50.164;8.012;2024-02-23T01:19:03;71700.88;;;-144.13;100.00
76374;BME280;65197;50.164;8.012;2024-02-23T01:21:28;71696.97;;;-144.13;100.00
76374;BME280;65197;50.164;8.012;2024-02-23T01:23:54;71695.00;;;-144.13;100.00
76374;BME280;65197;50.164;8.012;2024-02-23T01:26:19;71724.25;;;-144.13;100.00
76374;BME280;65197;50.164;8.012;2024-02-23T01:28:44;71728.16;;;-144.13;100.00
76374;BME280;65197;50.164;8.012;2024-02-23T01:31:11;71710.63;;;-144.13;100.00
76374;BME280;65197;50.164;8.012;2024-02-23T01:33:37;71745.72;;;-144.13;100.00
76374;BME280;65197;50.164;8.012;2024-02-23T01:36:07;71724.25;;;-144.13;100.00
76374;BME280;65197;50.164;8.012;2024-02-23T01:38:33;71702.81;;;-144.13;100.00
76374;BME280;65197;50.164;8.012;2024-02-23T01:40:59;71716.47;;;-144.13;100.00
76374;BME280;65197;50.164;8.012;2024-02-23T01:43:25;71716.47;;;-144.13;100.00
76374;BME280;65197;50.164;8.012;2024-02-23T01:45:51;71763.25;;;-144.13;100.00
76374;BME280;65197;50.164;8.012;2024-02-23T01:48:16;71751.56;;;-144.13;100.00
76374;BME280;65197;50.164;8.012;2024-02-23T01:50:43;71739.88;;;-144.13;100.00
76374;BME280;65197;50.164;8.012;2024-02-23T01:53:09;71755.47;;;-144.13;100.00
76374;BME280;65197;50.164;8.012;2024-02-23T01:55:36;71767.16;;;-144.13;100.00
76374;BME280;65197;50.164;8.012;2024-02-23T01:58:04;71743.75;;;-144.13;99.21
76374;BME280;65197;50.164;8.012;2024-02-23T02:00:29;71780.81;;;-144.13;100.00
76374;BME280;65197;50.164;8.012;2024-02-23T02:02:56;71782.75;;;-144.13;100.00
76374;BME280;65197;50.164;8.012;2024-02-23T02:05:21;71792.50;;;-144.13;100.00
76374;BME280;65197;50.164;8.012;2024-02-23T02:07:49;71794.47;;;-144.13;99.68
76374;BME280;65197;50.164;8.012;2024-02-23T02:10:19;71774.97;;;-144.13;97.35
76374;BME280;65197;50.164;8.012;2024-02-23T02:12:45;71763.25;;;-144.13;94.99
76374;BME280;65197;50.164;8.012;2024-02-23T02:15:10;71784.72;;;-144.13;96.29
76374;BME280;65197;50.164;8.012;2024-02-23T02:17:36;71774.97;;;-144.13;95.32
76374;BME280;65197;50.164;8.012;2024-02-23T02:20:02;71778.88;;;-144.13;94.98
76374;BME280;65197;50.164;8.012;2024-02-23T02:22:32;71778.88;;;-144.13;95.45
76374;BME280;65197;50.164;8.012;2024-02-23T02:24:58;71761.31;;;-144.13;93.50
76374;BME280;65197;50.164;8.012;2024-02-23T02:27:23;71792.50;;;-144.13;95.74
76374;BME280;65197;50.164;8.012;2024-02-23T02:29:50;71819.81;;;-144.13;96.71
76374;BME280;65197;50.164;8.012;2024-02-23T02:32:16;71786.66;;;-144.13;95.50
76374;BME280;65197;50.164;8.012;2024-02-23T02:34:42;71794.47;;;-144.13;95.52
76374;BME280;65197;50.164;8.012;2024-02-23T02:37:07;71774.97;;;-144.13;95.00
76374;BME280;65197;50.164;8.012;2024-02-23T02:39:33;71780.81;;;-144.13;96.40
76374;BME280;65197;50.164;8.012;2024-02-23T02:41:58;71763.25;;;-144.13;96.86
76374;BME280;65197;50.164;8.012;2024-02-23T02:44:24;71786.66;;;-144.13;97.29
76374;BME280;65197;50.164;8.012;2024-02-23T02:46:49;71774.97;;;-144.13;96.17
76374;BME280;65197;50.164;8.012;2024-02-23T02:49:14;71759.34;;;-144.13;96.34
76374;BME280;65197;50.164;8.012;2024-02-23T02:51:40;71790.56;;;-144.13;97.27
76374;BME280;65197;50.164;8.012;2024-02-23T02:54:05;71774.97;;;-144.13;97.00
76374;BME280;65197;50.164;8.012;2024-02-23T02:56:31;71755.47;;;-144.13;95.63
76374;BME280;65197;50.164;8.012;2024-02-23T02:58:56;71790.56;;;-144.13;95.95
76374;BME280;65197;50.164;8.012;2024-02-23T03:01:22;71802.25;;;-144.13;95.34
76374;BME280;65197;50.164;8.012;2024-02-23T03:03:47;71810.06;;;-144.13;96.62
76374;BME280;65197;50.164;8.012;2024-02-23T03:06:12;71825.66;;;-144.13;96.04
76374;BME280;65197;50.164;8.012;2024-02-23T03:08:38;71800.31;;;-144.13;94.35
76374;BME280;65197;50.164;8.012;2024-02-23T03:11:03;71810.06;;;-144.13;94.44
76374;BME280;65197;50.164;8.012;2024-02-23T03:13:28;71825.66;;;-144.13;93.25
76374;BME280;65197;50.164;8.012;2024-02-23T03:15:54;71819.81;;;-144.13;93.43
76374;BME280;65197;50.164;8.012;2024-02-23T03:18:19;71837.34;;;-144.13;93.58
76374;BME280;65197;50.164;8.012;2024-02-23T03:20:45;71794.47;;;-144.13;92.27
76374;BME280;65197;50.164;8.012;2024-02-23T03:23:11;71825.66;;;-144.13;93.57
76374;BME280;65197;50.164;8.012;2024-02-23T03:25:36;71821.75;;;-144.13;93.40
76374;BME280;65197;50.164;8.012;2024-02-23T03:28:02;71827.59;;;-144.13;93.72
76374;BME280;65197;50.164;8.012;2024-02-23T03:30:27;71829.56;;;-144.13;93.14
76374;BME280;65197;50.164;8.012;2024-02-23T03:32:52;71833.47;;;-144.13;93.60
76374;BME280;65197;50.164;8.012;2024-02-23T03:35:18;71821.75;;;-144.13;94.05
76374;BME280;65197;50.164;8.012;2024-02-23T03:37:43;71819.81;;;-144.13;93.81
76374;BME280;65197;50.164;8.012;2024-02-23T03:40:09;71852.97;;;-144.13;93.83
76374;BME280;65197;50.164;8.012;2024-02-23T03:42:35;71815.91;;;-144.13;94.31
76374;BME280;65197;50.164;8.012;2024-02-23T03:45:01;71815.91;;;-144.13;93.63
76374;BME280;65197;50.164;8.012;2024-02-23T03:47:26;71819.81;;;-144.13;94.33
76374;BME280;65197;50.164;8.012;2024-02-23T03:49:52;71819.81;;;-144.13;93.49
76374;BME280;65197;50.164;8.012;2024-02-23T03:52:17;71790.56;;;-144.13;93.30
76374;BME280;65197;50.164;8.012;2024-02-23T03:54:42;71837.34;;;-144.13;95.04
76374;BME280;65197;50.164;8.012;2024-02-23T03:57:08;71827.59;;;-144.13;94.62
76374;BME280;65197;50.164;8.012;2024-02-23T03:59:36;71825.66;;;-144.13;95.44
76374;BME280;65197;50.164;8.012;2024-02-23T04:02:01;71808.09;;;-144.13;96.63
76374;BME280;65197;50.164;8.012;2024-02-23T04:04:26;71806.16;;;-144.13;96.30
76374;BME280;65197;50.164;8.012;2024-02-23T04:06:52;71821.75;;;-144.13;97.76
76374;BME280;65197;50.164;8.012;2024-02-23T04:09:17;71856.84;;;-144.13;100.00
76374;BME280;65197;50.164;8.012;2024-02-23T04:11:42;71825.66;;;-144.13;99.48
76374;BME280;65197;50.164;8.012;2024-02-23T04:14:08;71812.00;;;-144.13;99.31
76374;BME280;65197;50.164;8.012;2024-02-23T04:16:33;71843.22;;;-144.13;98.72
76374;BME280;65197;50.164;8.012;2024-02-23T04:18:59;71845.16;;;-144.13;98.70
76374;BME280;65197;50.164;8.012;2024-02-23T04:21:25;71876.34;;;-144.13;100.00
76374;BME280;65197;50.164;8.012;2024-02-23T04:23:51;71852.97;;;-144.13;98.92
76374;BME280;65197;50.164;8.012;2024-02-23T04:26:16;71827.59;;;-144.13;97.73
76374;BME280;65197;50.164;8.012;2024-02-23T04:28:42;71831.50;;;-144.13;97.38
76374;BME280;65197;50.164;8.012;2024-02-23T04:31:08;71821.75;;;-144.13;97.59
76374;BME280;65197;50.164;8.012;2024-02-23T04:33:35;71819.81;;;-144.13;97.17
76374;BME280;65197;50.164;8.012;2024-02-23T04:36:00;71784.72;;;-144.13;95.19
76374;BME280;65197;50.164;8.012;2024-02-23T04:38:26;71847.09;;;-144.13;97.38
76374;BME280;65197;50.164;8.012;2024-02-23T04:40:51;71833.47;;;-144.13;96.89
76374;BME280;65197;50.164;8.012;2024-02-23T04:43:17;71833.47;;;-144.13;95.47
76374;BME280;65197;50.164;8.012;2024-02-23T04:45:42;71829.56;;;-144.13;95.00
76374;BME280;65197;50.164;8.012;2024-02-23T04:48:07;71786.66;;;-144.13;94.05
76374;BME280;65197;50.164;8.012;2024-02-23T04:50:33;71798.34;;;-144.13;94.66
76374;BME280;65197;50.164;8.012;2024-02-23T04:52:58;71821.75;;;-144.13;94.36
76374;BME280;65197;50.164;8.012;2024-02-23T04:55:24;71835.41;;;-144.13;93.84
76374;BME280;65197;50.164;8.012;2024-02-23T04:57:49;71823.72;;;-144.13;92.53
76374;BME280;65197;50.164;8.012;2024-02-23T05:00:14;71837.34;;;-144.13;93.64
76374;BME280;65197;50.164;8.012;2024-02-23T05:02:40;71810.06;;;-144.13;93.17
76374;BME280;65197;50.164;8.012;2024-02-23T05:05:06;71806.16;;;-144.13;91.53
76374;BME280;65197;50.164;8.012;2024-02-23T05:07:31;71829.56;;;-144.13;93.00
76374;BME280;65197;50.164;8.012;2024-02-23T05:09:57;71837.34;;;-144.13;92.73
76374;BME280;65197;50.164;8.012;2024-02-23T05:12:23;71833.47;;;-144.13;92.99
76374;BME280;65197;50.164;8.012;2024-02-23T05:14:48;71839.31;;;-144.13;93.17
76374;BME280;65197;50.164;8.012;2024-02-23T05:17:14;71856.84;;;-144.13;93.59
76374;BME280;65197;50.164;8.012;2024-02-23T05:19:39;71821.75;;;-144.13;90.75
76374;BME280;65197;50.164;8.012;2024-02-23T05:22:04;71852.97;;;-144.13;91.81
76374;BME280;65197;50.164;8.012;2024-02-23T05:24:30;71829.56;;;-144.13;90.00
76374;BME280;65197;50.164;8.012;2024-02-23T05:26:55;71833.47;;;-144.13;88.69
76374;BME280;65197;50.164;8.012;2024-02-23T05:29:23;71812.00;;;-144.13;87.25
76374;BME280;65197;50.164;8.012;2024-02-23T05:31:51;71798.34;;;-144.13;86.20
76374;BME280;65197;50.164;8.012;2024-02-23T05:34:17;71868.56;;;-144.13;89.36
76374;BME280;65197;50.164;8.012;2024-02-23T05:36:43;71852.97;;;-144.13;88.32
76374;BME280;65197;50.164;8.012;2024-02-23T05:39:09;71849.06;;;-144.13;87.79
76374;BME280;65197;50.164;8.012;2024-02-23T05:41:35;71884.16;;;-144.13;88.55
76374;BME280;65197;50.164;8.012;2024-02-23T05:44:02;71874.41;;;-144.13;88.11
76374;BME280;65197;50.164;8.012;2024-02-23T05:46:30;71864.66;;;-144.13;86.89
76374;BME280;65197;50.164;8.012;2024-02-23T05:48:56;71864.66;;;-144.13;88.67
76374;BME280;65197;50.164;8.012;2024-02-23T05:51:22;71860.75;;;-144.13;89.26
76374;BME280;65197;50.164;8.012;2024-02-23T05:53:47;71845.16;;;-144.13;88.61
76374;BME280;65197;50.164;8.012;2024-02-23T05:56:13;71851.00;;;-144.13;88.88
76374;BME280;65197;50.164;8.012;2024-02-23T05:58:38;71841.25;;;-144.13;89.05
76374;BME280;65197;50.164;8.012;2024-02-23T06:01:05;71833.47;;;-144.13;89.25
76374;BME280;65197;50.164;8.012;2024-02-23T06:03:30;71849.06;;;-144.13;90.39
76374;BME280;65197;50.164;8.012;2024-02-23T06:05:55;71837.34;;;-144.13;89.16
76374;BME280;65197;50.164;8.012;2024-02-23T06:08:21;71868.56;;;-144.13;90.69
76374;BME280;65197;50.164;8.012;2024-02-23T06:10:47;71829.56;;;-144.13;88.92
76374;BME280;65197;50.164;8.012;2024-02-23T06:13:13;71841.25;;;-144.13;89.62
76374;BME280;65197;50.164;8.012;2024-02-23T06:15:38;71804.22;;;-144.13;87.69
76374;BME280;65197;50.164;8.012;2024-02-23T06:18:04;71745.72;;;-144.13;85.60
76374;BME280;65197;50.164;8.012;2024-02-23T06:20:29;71837.34;;;-144.13;88.12
76374;BME280;65197;50.164;8.012;2024-02-23T06:22:55;71829.56;;;-144.13;88.36
76374;BME280;65197;50.164;8.012;2024-02-23T06:25:21;71825.66;;;-144.13;87.01
76374;BME280;65197;50.164;8.012;2024-02-23T06:27:46;71870.50;;;-144.13;88.77
76374;BME280;65197;50.164;8.012;2024-02-23T06:30:11;71847.09;;;-144.13;89.35
76374;BME280;65197;50.164;8.012;2024-02-23T06:32:37;71845.16;;;-144.13;90.39
76374;BME280;65197;50.164;8.012;2024-02-23T06:35:02;71823.72;;;-144.13;88.31
76374;BME280;65197;50.164;8.012;2024-02-23T06:37:28;71841.25;;;-144.13;89.25
76374;BME280;65197;50.164;8.012;2024-02-23T06:39:54;71852.97;;;-144.13;90.53
76374;BME280;65197;50.164;8.012;2024-02-23T06:42:22;71860.75;;;-144.13;91.07
76374;BME280;65197;50.164;8.012;2024-02-23T06:44:48;71845.16;;;-144.13;90.26
76374;BME280;65197;50.164;8.012;2024-02-23T06:47:14;71852.97;;;-144.13;90.86
76374;BME280;65197;50.164;8.012;2024-02-23T06:49:42;71860.75;;;-144.13;91.70
76374;BME280;65197;50.164;8.012;2024-02-23T06:52:08;71854.91;;;-144.13;92.27
76374;BME280;65197;50.164;8.012;2024-02-23T06:54:34;71870.50;;;-144.13;91.80
76374;BME280;65197;50.164;8.012;2024-02-23T06:57:00;71825.66;;;-144.13;90.81
76374;BME280;65197;50.164;8.012;2024-02-23T06:59:25;71771.06;;;-144.13;88.58
76374;BME280;65197;50.164;8.012;2024-02-23T07:01:51;71774.97;;;-144.13;87.72
76374;BME280;65197;50.164;8.012;2024-02-23T07:04:17;71732.06;;;-144.13;87.26
76374;BME280;65197;50.164;8.012;2024-02-23T07:06:42;71661.88;;;-144.13;83.17
76374;BME280;65197;50.164;8.012;2024-02-23T07:09:08;71626.78;;;-144.13;82.04
76374;BME280;65197;50.164;8.012;2024-02-23T07:11:33;71572.19;;;-144.13;78.96
76374;BME280;65197;50.164;8.012;2024-02-23T07:13:59;71665.78;;;-144.13;81.99
76374;BME280;65197;50.164;8.012;2024-02-23T07:16:24;71689.16;;;-144.13;85.82
76374;BME280;65197;50.164;8.012;2024-02-23T07:18:49;71712.56;;;-144.13;87.57
76374;BME280;65197;50.164;8.012;2024-02-23T07:21:17;71724.25;;;-144.13;88.09
76374;BME280;65197;50.164;8.012;2024-02-23T07:23:43;71774.97;;;-144.13;91.06
76374;BME280;65197;50.164;8.012;2024-02-23T07:26:08;71833.47;;;-144.13;95.49
76374;BME280;65197;50.164;8.012;2024-02-23T07:28:34;71841.25;;;-144.13;94.82
76374;BME280;65197;50.164;8.012;2024-02-23T07:31:00;71868.56;;;-144.13;98.62
76374;BME280;65197;50.164;8.012;2024-02-23T07:33:26;71821.75;;;-144.13;96.80
76374;BME280;65197;50.164;8.012;2024-02-23T07:35:51;71825.66;;;-144.13;96.39
76374;BME280;65197;50.164;8.012;2024-02-23T07:38:16;71806.16;;;-144.13;96.00
76374;BME280;65197;50.164;8.012;2024-02-23T07:40:44;71833.47;;;-144.13;95.15
76374;BME280;65197;50.164;8.012;2024-02-23T07:43:09;71825.66;;;-144.13;95.83
76374;BME280;65197;50.164;8.012;2024-02-23T07:45:38;71858.81;;;-144.13;96.46
76374;BME280;65197;50.164;8.012;2024-02-23T07:48:04;71845.16;;;-144.13;95.77
76374;BME280;65197;50.164;8.012;2024-02-23T07:50:29;71841.25;;;-144.13;96.46
76374;BME280;65197;50.164;8.012;2024-02-23T07:52:55;71841.25;;;-144.13;97.03
76374;BME280;65197;50.164;8.012;2024-02-23T07:55:20;71813.97;;;-144.13;96.44
76374;BME280;65197;50.164;8.012;2024-02-23T07:57:46;71880.25;;;-144.13;99.89
76374;BME280;65197;50.164;8.012;2024-02-23T08:00:11;71849.06;;;-144.13;99.16
76374;BME280;65197;50.164;8.012;2024-02-23T08:02:37;71849.06;;;-144.13;99.18
76374;BME280;65197;50.164;8.012;2024-02-23T08:05:03;71860.75;;;-144.13;100.00
76374;BME280;65197;50.164;8.012;2024-02-23T08:07:29;71823.72;;;-144.13;99.14
76374;BME280;65197;50.164;8.012;2024-02-23T08:09:56;71833.47;;;-144.13;98.28
76374;BME280;65197;50.164;8.012;2024-02-23T08:12:22;71819.81;;;-144.13;97.30
76374;BME280;65197;50.164;8.012;2024-02-23T08:14:47;71800.31;;;-144.13;97.24
76374;BME280;65197;50.164;8.012;2024-02-23T08:17:14;71812.00;;;-144.13;97.53
76374;BME280;65197;50.164;8.012;2024-02-23T08:19:40;71802.25;;;-144.13;98.00
76374;BME280;65197;50.164;8.012;2024-02-23T08:22:05;71804.22;;;-144.13;97.18
76374;BME280;65197;50.164;8.012;2024-02-23T08:24:30;71829.56;;;-144.13;98.18
76374;BME280;65197;50.164;8.012;2024-02-23T08:26:56;71823.72;;;-144.13;97.75
76374;BME280;65197;50.164;8.012;2024-02-23T08:29:22;71813.97;;;-144.13;98.24
76374;BME280;65197;50.164;8.012;2024-02-23T08:31:48;71806.16;;;-144.13;98.27
76374;BME280;65197;50.164;8.012;2024-02-23T08:34:14;71810.06;;;-144.13;99.35
76374;BME280;65197;50.164;8.012;2024-02-23T08:36:39;71784.72;;;-144.13;97.72
76374;BME280;65197;50.164;8.012;2024-02-23T08:39:05;71786.66;;;-144.13;96.92
76374;BME280;65197;50.164;8.012;2024-02-23T08:41:30;71794.47;;;-144.13;97.34
76374;BME280;65197;50.164;8.012;2024-02-23T08:43:55;71794.47;;;-144.13;97.92
76374;BME280;65197;50.164;8.012;2024-02-23T08:46:21;71790.56;;;-144.13;96.99
76374;BME280;65197;50.164;8.012;2024-02-23T08:48:47;71790.56;;;-144.13;97.73
76374;BME280;65197;50.164;8.012;2024-02-23T08:51:12;71771.06;;;-144.13;96.56
76374;BME280;65197;50.164;8.012;2024-02-23T08:53:37;71831.50;;;-144.13;98.21
76374;BME280;65197;50.164;8.012;2024-02-23T08:56:03;71792.50;;;-144.13;98.17
76374;BME280;65197;50.164;8.012;2024-02-23T08:58:29;71786.66;;;-144.13;98.38
76374;BME280;65197;50.164;8.012;2024-02-23T09:00:55;71782.75;;;-144.13;96.53
76374;BME280;65197;50.164;8.012;2024-02-23T09:03:20;71782.75;;;-144.13;98.83
76374;BME280;65197;50.164;8.012;2024-02-23T09:05:46;71802.25;;;-144.13;98.63
76374;BME280;65197;50.164;8.012;2024-02-23T09:08:13;71804.22;;;-144.13;99.56
76374;BME280;65197;50.164;8.012;2024-02-23T09:10:38;71819.81;;;-144.13;100.00
76374;BME280;65197;50.164;8.012;2024-02-23T09:13:04;71798.34;;;-144.13;100.00
76374;BME280;65197;50.164;8.012;2024-02-23T09:15:29;71833.47;;;-144.13;100.00
76374;BME280;65197;50.164;8.012;2024-02-23T09:17:55;71825.66;;;-144.13;100.00
76374;BME280;65197;50.164;8.012;2024-02-23T09:20:20;71794.47;;;-144.13;100.00
76374;BME280;65197;50.164;8.012;2024-02-23T09:22:45;71812.00;;;-144.13;100.00
76374;BME280;65197;50.164;8.012;2024-02-23T09:25:11;71829.56;;;-144.13;100.00
76374;BME280;65197;50.164;8.012;2024-02-23T09:27:36;71821.75;;;-144.13;100.00
76374;BME280;65197;50.164;8.012;2024-02-23T09:30:10;71808.09;;;-144.13;100.00
76374;BME280;65197;50.164;8.012;2024-02-23T09:32:35;71815.91;;;-144.13;100.00
76374;BME280;65197;50.164;8.012;2024-02-23T09:35:01;71782.75;;;-144.13;100.00
76374;BME280;65197;50.164;8.012;2024-02-23T09:37:26;71771.06;;;-144.13;100.00
76374;BME280;65197;50.164;8.012;2024-02-23T09:39:51;71782.75;;;-144.13;100.00
76374;BME280;65197;50.164;8.012;2024-02-23T09:42:17;71790.56;;;-144.13;100.00
76374;BME280;65197;50.164;8.012;2024-02-23T09:44:44;71767.16;;;-144.13;100.00
76374;BME280;65197;50.164;8.012;2024-02-23T09:47:12;71782.75;;;-144.13;100.00
76374;BME280;65197;50.164;8.012;2024-02-23T09:49:39;71728.16;;;-144.13;100.00
76374;BME280;65197;50.164;8.012;2024-02-23T09:52:08;71630.66;;;-144.13;100.00
76374;BME280;65197;50.164;8.012;2024-02-23T09:54:37;71502.00;;;-144.13;93.53
76374;BME280;65197;50.164;8.012;2024-02-23T09:57:07;71535.13;;;-144.13;94.79
76374;BME280;65197;50.164;8.012;2024-02-23T09:59:34;71496.13;;;-144.13;93.15
76374;BME280;65197;50.164;8.012;2024-02-23T10:02:01;71474.69;;;-144.13;91.25
76374;BME280;65197;50.164;8.012;2024-02-23T10:04:28;71451.28;;;-144.13;89.13
76374;BME280;65197;50.164;8.012;2024-02-23T10:06:56;71392.81;;;-144.13;81.94
76374;BME280;65197;50.164;8.012;2024-02-23T10:09:21;71381.09;;;-144.13;78.83
76374;BME280;65197;50.164;8.012;2024-02-23T10:11:52;71470.78;;;-144.13;83.23
76374;BME280;65197;50.164;8.012;2024-02-23T10:14:18;71505.88;;;-144.13;84.02
76374;BME280;65197;50.164;8.012;2024-02-23T10:16:43;71544.88;;;-144.13;86.95
76374;BME280;65197;50.164;8.012;2024-02-23T10:19:09;71513.69;;;-144.13;86.81
76374;BME280;65197;50.164;8.012;2024-02-23T10:21:34;71591.69;;;-144.13;90.51
76374;BME280;65197;50.164;8.012;2024-02-23T10:24:00;71665.78;;;-144.13;91.03
76374;BME280;65197;50.164;8.012;2024-02-23T10:26:26;71747.66;;;-144.13;92.82
76374;BME280;65197;50.164;8.012;2024-02-23T10:28:52;71677.47;;;-144.13;93.17
76374;BME280;65197;50.164;8.012;2024-02-23T10:31:18;71656.03;;;-144.13;91.97
76374;BME280;65197;50.164;8.012;2024-02-23T10:33:44;71574.13;;;-144.13;89.24
76374;BME280;65197;50.164;8.012;2024-02-23T10:36:10;71537.09;;;-144.13;85.05
76374;BME280;65197;50.164;8.012;2024-02-23T10:38:38;71583.88;;;-144.13;86.96
76374;BME280;65197;50.164;8.012;2024-02-23T10:41:05;71646.28;;;-144.13;87.92
76374;BME280;65197;50.164;8.012;2024-02-23T10:43:44;71669.66;;;-144.13;88.71
76374;BME280;65197;50.164;8.012;2024-02-23T10:46:12;71630.66;;;-144.13;91.49
76374;BME280;65197;50.164;8.012;2024-02-23T10:48:44;71564.38;;;-144.13;91.28
76374;BME280;65197;50.164;8.012;2024-02-23T10:51:11;71542.94;;;-144.13;88.82
76374;BME280;65197;50.164;8.012;2024-02-23T10:53:39;71552.69;;;-144.13;84.31
76374;BME280;65197;50.164;8.012;2024-02-23T10:56:05;71394.75;;;-144.13;81.92
76374;BME280;65197;50.164;8.012;2024-02-23T10:58:31;71488.34;;;-144.13;80.88
76374;BME280;65197;50.164;8.012;2024-02-23T11:01:04;71449.34;;;-144.13;79.32
76374;BME280;65197;50.164;8.012;2024-02-23T11:03:32;71351.84;;;-144.13;72.47
76374;BME280;65197;50.164;8.012;2024-02-23T11:06:01;71275.81;;;-144.13;70.60
76374;BME280;65197;50.164;8.012;2024-02-23T11:08:30;71371.34;;;-144.13;68.96
76374;BME280;65197;50.164;8.012;2024-02-23T11:11:07;71336.25;;;-144.13;68.57
76374;BME280;65197;50.164;8.012;2024-02-23T11:13:39;71285.56;;;-144.13;61.95
76374;BME280;65197;50.164;8.012;2024-02-23T11:16:08;71346.00;;;-144.13;64.87
76374;BME280;65197;50.164;8.012;2024-02-23T11:18:35;71453.25;;;-144.13;64.03
76374;BME280;65197;50.164;8.012;2024-02-23T11:21:02;71388.91;;;-144.13;65.64
76374;BME280;65197;50.164;8.012;2024-02-23T11:23:42;71373.31;;;-144.13;64.56
76374;BME280;65197;50.164;8.012;2024-02-23T11:26:12;71229.03;;;-144.13;59.25
76374;BME280;65197;50.164;8.012;2024-02-23T11:28:48;71108.16;;;-144.13;58.06
76374;BME280;65197;50.164;8.012;2024-02-23T11:31:15;71104.25;;;-144.13;57.40
76374;BME280;65197;50.164;8.012;2024-02-23T11:33:51;71143.25;;;-144.13;52.69
76374;BME280;65197;50.164;8.012;2024-02-23T11:36:31;71119.84;;;-144.13;55.98
76374;BME280;65197;50.164;8.012;2024-02-23T11:38:59;71266.06;;;-144.13;57.53
76374;BME280;65197;50.164;8.012;2024-02-23T11:41:26;71324.56;;;-144.13;57.63
76374;BME280;65197;50.164;8.012;2024-02-23T11:43:52;71316.75;;;-144.13;60.08
76374;BME280;65197;50.164;8.012;2024-02-23T11:46:19;71424.00;;;-144.13;59.68
76374;BME280;65197;50.164;8.012;2024-02-23T11:48:45;71435.69;;;-144.13;62.63
76374;BME280;65197;50.164;8.012;2024-02-23T11:51:14;71490.28;;;-144.13;65.17
76374;BME280;65197;50.164;8.012;2024-02-23T11:53:40;71457.16;;;-144.13;65.36
76374;BME280;65197;50.164;8.012;2024-02-23T11:56:05;71427.91;;;-144.13;66.13
76374;BME280;65197;50.164;8.012;2024-02-23T11:58:32;71463.00;;;-144.13;65.62
76374;BME280;65197;50.164;8.012;2024-02-23T12:00:59;71439.59;;;-144.13;66.81
76374;BME280;65197;50.164;8.012;2024-02-23T12:03:26;71420.09;;;-144.13;64.15
76374;BME280;65197;50.164;8.012;2024-02-23T12:05:51;71459.09;;;-144.13;66.24
76374;BME280;65197;50.164;8.012;2024-02-23T12:08:17;71447.41;;;-144.13;64.96
76374;BME280;65197;50.164;8.012;2024-02-23T12:10:43;71459.09;;;-144.13;65.60
76374;BME280;65197;50.164;8.012;2024-02-23T12:13:09;71466.91;;;-144.13;66.48
76374;BME280;65197;50.164;8.012;2024-02-23T12:15:34;71427.91;;;-144.13;67.87
76374;BME280;65197;50.164;8.012;2024-02-23T12:18:00;71357.72;;;-144.13;64.70
76374;BME280;65197;50.164;8.012;2024-02-23T12:20:25;71373.31;;;-144.13;66.28
76374;BME280;65197;50.164;8.012;2024-02-23T12:22:54;71416.19;;;-144.13;66.42
76374;BME280;65197;50.164;8.012;2024-02-23T12:25:21;71431.81;;;-144.13;66.69
76374;BME280;65197;50.164;8.012;2024-02-23T12:27:47;71404.50;;;-144.13;67.74
76374;BME280;65197;50.164;8.012;2024-02-23T12:30:18;71385.00;;;-144.13;64.71
76374;BME280;65197;50.164;8.012;2024-02-23T12:32:44;71439.59;;;-144.13;65.03